الصفحة الرئيسية
METAR-TAF:

METAR-TAF

مطار :

مطار تندوف

تندوف, الجزائر

دائرة عرض: 27-40N, خط طول: 008-08W, ارتفاع: 431 متر

مراقبة الطقس الحالي

تاريخ ووقت الإصدار 1ساعة و 6 دقيقة قبل الساعة 02:00UTC
ريح 8 عقدة من الغرب
درجة الحرارة 9°درجة مئوية
الرطوبة 53%
ضغط 1019 hPa
الرؤية 10 كم أو أكثر
الغيوم لا تقل 1500 م ولا وجود لمزنة ركامية السحاب الأسود

METAR: DAOF 230200Z 28008KT CAVOK 09/00 Q1019

زمن: 04:06 (03:06 UTC)

توقعات

تاريخ ووقت الإصدار 1ساعة و 6 دقيقة قبل الساعة 02:00UTC
التوقعات صالحة من23 الساعة 03 UTC إلى 23 الساعة 12 UTC
ريح 8 عقدة من الغرب
الرؤية 10 كم أو أكثر
الغيوم لا تقل 1500 م ولا وجود لمزنة ركامية السحاب الأسود

TAF: DAOF 230200Z 2303/2312 28008KT CAVOK

أرصاد الطقس والتوقعات من أكثر من 4000 مطار (تقارير الطقس للمطار METAR والتنبؤ بالطقس بالمطارTAF).

المحطات المتاحة هي النقط الصفراء والحمراء على الخريطة.

حرك المؤشر فوق النقطة لمعرفة اسم المحطة.

ثم انقر لمعرفة أرصاد وتوقعات الطقس.

لتغيير الخارطة: اضغط على الأزرار الخضراء مع رمز الصليب الأسود للتكبير. على الزر الأخضر مع شرطة للتصغير، أو على الأسهم الخضراء للخرائط المجاورة.


METAR-TAF: